sensor_id;sensor_type;location;lat;lon;timestamp;P1;durP1;ratioP1;P2;durP2;ratioP2
77864;SDS011;67061;48.524;9.040;2024-01-30T00:01:49;23.25;;;12.23;;
77864;SDS011;67061;48.524;9.040;2024-01-30T00:04:16;25.00;;;13.30;;
77864;SDS011;67061;48.524;9.040;2024-01-30T00:06:43;27.20;;;14.07;;
77864;SDS011;67061;48.524;9.040;2024-01-30T00:09:11;22.15;;;14.73;;
77864;SDS011;67061;48.524;9.040;2024-01-30T00:11:38;23.77;;;15.02;;
77864;SDS011;67061;48.524;9.040;2024-01-30T00:14:06;23.40;;;13.50;;
77864;SDS011;67061;48.524;9.040;2024-01-30T00:16:33;21.85;;;11.57;;
77864;SDS011;67061;48.524;9.040;2024-01-30T00:18:59;22.02;;;12.63;;
77864;SDS011;67061;48.524;9.040;2024-01-30T00:21:27;20.42;;;12.05;;
77864;SDS011;67061;48.524;9.040;2024-01-30T00:23:54;23.55;;;13.05;;
77864;SDS011;67061;48.524;9.040;2024-01-30T00:26:22;24.05;;;13.52;;
77864;SDS011;67061;48.524;9.040;2024-01-30T00:28:49;23.70;;;12.85;;
77864;SDS011;67061;48.524;9.040;2024-01-30T00:31:16;22.58;;;12.07;;
77864;SDS011;67061;48.524;9.040;2024-01-30T00:33:43;23.17;;;13.20;;
77864;SDS011;67061;48.524;9.040;2024-01-30T00:36:10;20.25;;;11.60;;
77864;SDS011;67061;48.524;9.040;2024-01-30T00:38:37;26.23;;;12.13;;
77864;SDS011;67061;48.524;9.040;2024-01-30T00:41:06;23.90;;;13.25;;
77864;SDS011;67061;48.524;9.040;2024-01-30T00:43:35;21.92;;;12.18;;
77864;SDS011;67061;48.524;9.040;2024-01-30T00:46:02;21.08;;;11.95;;
77864;SDS011;67061;48.524;9.040;2024-01-30T00:48:29;21.67;;;12.60;;
77864;SDS011;67061;48.524;9.040;2024-01-30T00:50:56;20.95;;;12.32;;
77864;SDS011;67061;48.524;9.040;2024-01-30T00:53:23;20.48;;;12.13;;
77864;SDS011;67061;48.524;9.040;2024-01-30T00:55:49;19.67;;;11.35;;
77864;SDS011;67061;48.524;9.040;2024-01-30T00:58:16;21.50;;;11.70;;
77864;SDS011;67061;48.524;9.040;2024-01-30T01:00:45;19.30;;;11.60;;
77864;SDS011;67061;48.524;9.040;2024-01-30T01:03:12;19.95;;;11.05;;
77864;SDS011;67061;48.524;9.040;2024-01-30T01:05:40;20.75;;;11.77;;
77864;SDS011;67061;48.524;9.040;2024-01-30T01:08:07;20.17;;;11.55;;
77864;SDS011;67061;48.524;9.040;2024-01-30T01:10:34;21.38;;;10.80;;
77864;SDS011;67061;48.524;9.040;2024-01-30T01:13:01;21.15;;;11.93;;
77864;SDS011;67061;48.524;9.040;2024-01-30T01:15:27;22.38;;;14.23;;
77864;SDS011;67061;48.524;9.040;2024-01-30T01:17:56;19.48;;;12.10;;
77864;SDS011;67061;48.524;9.040;2024-01-30T01:20:23;20.55;;;11.13;;
77864;SDS011;67061;48.524;9.040;2024-01-30T01:22:50;19.58;;;11.63;;
77864;SDS011;67061;48.524;9.040;2024-01-30T01:25:17;19.25;;;10.48;;
77864;SDS011;67061;48.524;9.040;2024-01-30T01:27:44;20.35;;;11.20;;
77864;SDS011;67061;48.524;9.040;2024-01-30T01:30:16;16.80;;;11.25;;
77864;SDS011;67061;48.524;9.040;2024-01-30T01:32:47;18.08;;;11.68;;
77864;SDS011;67061;48.524;9.040;2024-01-30T01:35:21;19.63;;;10.40;;
77864;SDS011;67061;48.524;9.040;2024-01-30T01:37:49;21.23;;;10.85;;
77864;SDS011;67061;48.524;9.040;2024-01-30T01:40:20;20.60;;;11.85;;
77864;SDS011;67061;48.524;9.040;2024-01-30T01:42:49;18.35;;;10.23;;
77864;SDS011;67061;48.524;9.040;2024-01-30T01:45:17;18.58;;;10.32;;
77864;SDS011;67061;48.524;9.040;2024-01-30T01:47:44;20.13;;;10.65;;
77864;SDS011;67061;48.524;9.040;2024-01-30T01:50:13;20.52;;;11.20;;
77864;SDS011;67061;48.524;9.040;2024-01-30T01:52:45;20.33;;;11.45;;
77864;SDS011;67061;48.524;9.040;2024-01-30T01:55:14;21.77;;;12.25;;
77864;SDS011;67061;48.524;9.040;2024-01-30T01:57:42;19.85;;;12.10;;
77864;SDS011;67061;48.524;9.040;2024-01-30T02:00:10;19.20;;;11.57;;
77864;SDS011;67061;48.524;9.040;2024-01-30T02:02:39;20.08;;;10.52;;
77864;SDS011;67061;48.524;9.040;2024-01-30T02:05:06;17.88;;;10.18;;
77864;SDS011;67061;48.524;9.040;2024-01-30T02:07:34;21.50;;;10.88;;
77864;SDS011;67061;48.524;9.040;2024-01-30T02:10:02;17.38;;;10.57;;
77864;SDS011;67061;48.524;9.040;2024-01-30T02:12:29;19.77;;;10.25;;
77864;SDS011;67061;48.524;9.040;2024-01-30T02:14:56;18.20;;;10.35;;
77864;SDS011;67061;48.524;9.040;2024-01-30T02:17:23;16.23;;;9.57;;
77864;SDS011;67061;48.524;9.040;2024-01-30T02:19:50;19.42;;;12.52;;
77864;SDS011;67061;48.524;9.040;2024-01-30T02:22:19;15.07;;;9.27;;
77864;SDS011;67061;48.524;9.040;2024-01-30T02:24:47;19.10;;;9.60;;
77864;SDS011;67061;48.524;9.040;2024-01-30T02:27:14;17.95;;;10.23;;
77864;SDS011;67061;48.524;9.040;2024-01-30T02:29:41;18.17;;;9.45;;
77864;SDS011;67061;48.524;9.040;2024-01-30T02:32:08;15.18;;;9.02;;
77864;SDS011;67061;48.524;9.040;2024-01-30T02:34:35;16.90;;;9.75;;
77864;SDS011;67061;48.524;9.040;2024-01-30T02:37:02;19.30;;;9.13;;
77864;SDS011;67061;48.524;9.040;2024-01-30T02:39:30;15.73;;;10.52;;
77864;SDS011;67061;48.524;9.040;2024-01-30T02:41:57;16.63;;;9.30;;
77864;SDS011;67061;48.524;9.040;2024-01-30T02:44:24;15.80;;;8.95;;
77864;SDS011;67061;48.524;9.040;2024-01-30T02:46:51;14.35;;;8.80;;
77864;SDS011;67061;48.524;9.040;2024-01-30T02:49:19;15.77;;;8.68;;
77864;SDS011;67061;48.524;9.040;2024-01-30T02:51:46;16.42;;;10.48;;
77864;SDS011;67061;48.524;9.040;2024-01-30T02:54:13;14.88;;;8.55;;
77864;SDS011;67061;48.524;9.040;2024-01-30T02:56:41;16.98;;;9.38;;
77864;SDS011;67061;48.524;9.040;2024-01-30T02:59:08;16.50;;;9.63;;
77864;SDS011;67061;48.524;9.040;2024-01-30T03:01:41;16.33;;;11.75;;
77864;SDS011;67061;48.524;9.040;2024-01-30T03:04:09;15.63;;;9.18;;
77864;SDS011;67061;48.524;9.040;2024-01-30T03:06:36;15.25;;;9.18;;
77864;SDS011;67061;48.524;9.040;2024-01-30T03:09:03;15.88;;;9.02;;
77864;SDS011;67061;48.524;9.040;2024-01-30T03:11:30;17.27;;;9.52;;
77864;SDS011;67061;48.524;9.040;2024-01-30T03:13:58;15.38;;;8.63;;
77864;SDS011;67061;48.524;9.040;2024-01-30T03:16:25;16.67;;;9.25;;
77864;SDS011;67061;48.524;9.040;2024-01-30T03:18:52;14.80;;;8.50;;
77864;SDS011;67061;48.524;9.040;2024-01-30T03:21:19;18.10;;;9.00;;
77864;SDS011;67061;48.524;9.040;2024-01-30T03:23:46;16.52;;;8.90;;
77864;SDS011;67061;48.524;9.040;2024-01-30T03:26:13;16.60;;;8.93;;
77864;SDS011;67061;48.524;9.040;2024-01-30T03:28:41;15.80;;;8.82;;
77864;SDS011;67061;48.524;9.040;2024-01-30T03:31:09;14.80;;;8.77;;
77864;SDS011;67061;48.524;9.040;2024-01-30T03:33:36;16.00;;;8.18;;
77864;SDS011;67061;48.524;9.040;2024-01-30T03:36:04;15.88;;;8.95;;
77864;SDS011;67061;48.524;9.040;2024-01-30T03:38:31;14.30;;;8.40;;
77864;SDS011;67061;48.524;9.040;2024-01-30T03:40:58;16.48;;;8.45;;
77864;SDS011;67061;48.524;9.040;2024-01-30T03:43:25;15.15;;;8.98;;
77864;SDS011;67061;48.524;9.040;2024-01-30T03:45:52;13.43;;;7.57;;
77864;SDS011;67061;48.524;9.040;2024-01-30T03:48:21;13.35;;;8.30;;
77864;SDS011;67061;48.524;9.040;2024-01-30T03:50:48;14.52;;;8.05;;
77864;SDS011;67061;48.524;9.040;2024-01-30T03:53:14;17.65;;;9.82;;
77864;SDS011;67061;48.524;9.040;2024-01-30T03:55:41;15.52;;;8.02;;
77864;SDS011;67061;48.524;9.040;2024-01-30T03:58:08;14.68;;;8.07;;
77864;SDS011;67061;48.524;9.040;2024-01-30T04:00:35;15.65;;;8.63;;
77864;SDS011;67061;48.524;9.040;2024-01-30T04:03:02;16.00;;;8.73;;
77864;SDS011;67061;48.524;9.040;2024-01-30T04:05:30;16.60;;;8.23;;
77864;SDS011;67061;48.524;9.040;2024-01-30T04:07:57;15.02;;;8.18;;
77864;SDS011;67061;48.524;9.040;2024-01-30T04:10:25;15.73;;;8.93;;
77864;SDS011;67061;48.524;9.040;2024-01-30T04:12:52;15.70;;;9.15;;
77864;SDS011;67061;48.524;9.040;2024-01-30T04:15:19;15.57;;;9.30;;
77864;SDS011;67061;48.524;9.040;2024-01-30T04:17:46;15.88;;;8.93;;
77864;SDS011;67061;48.524;9.040;2024-01-30T04:20:14;16.00;;;9.57;;
77864;SDS011;67061;48.524;9.040;2024-01-30T04:22:43;14.95;;;8.98;;
77864;SDS011;67061;48.524;9.040;2024-01-30T04:25:10;15.70;;;9.32;;
77864;SDS011;67061;48.524;9.040;2024-01-30T04:27:37;15.15;;;8.88;;
77864;SDS011;67061;48.524;9.040;2024-01-30T04:30:05;17.77;;;9.50;;
77864;SDS011;67061;48.524;9.040;2024-01-30T04:32:32;16.70;;;8.82;;
77864;SDS011;67061;48.524;9.040;2024-01-30T04:34:59;14.85;;;8.68;;
77864;SDS011;67061;48.524;9.040;2024-01-30T04:37:26;15.57;;;8.73;;
77864;SDS011;67061;48.524;9.040;2024-01-30T04:39:54;16.02;;;8.95;;
77864;SDS011;67061;48.524;9.040;2024-01-30T04:42:21;16.90;;;10.43;;
77864;SDS011;67061;48.524;9.040;2024-01-30T04:44:48;16.83;;;8.90;;
77864;SDS011;67061;48.524;9.040;2024-01-30T04:47:15;16.38;;;8.68;;
77864;SDS011;67061;48.524;9.040;2024-01-30T04:49:42;16.40;;;8.93;;
77864;SDS011;67061;48.524;9.040;2024-01-30T04:52:09;14.80;;;8.98;;
77864;SDS011;67061;48.524;9.040;2024-01-30T04:54:36;18.95;;;10.55;;
77864;SDS011;67061;48.524;9.040;2024-01-30T04:57:05;16.90;;;8.88;;
77864;SDS011;67061;48.524;9.040;2024-01-30T04:59:34;15.77;;;8.57;;
77864;SDS011;67061;48.524;9.040;2024-01-30T05:02:01;16.15;;;10.75;;
77864;SDS011;67061;48.524;9.040;2024-01-30T05:04:28;15.18;;;8.45;;
77864;SDS011;67061;48.524;9.040;2024-01-30T05:06:55;15.57;;;9.35;;
77864;SDS011;67061;48.524;9.040;2024-01-30T05:09:22;18.05;;;8.80;;
77864;SDS011;67061;48.524;9.040;2024-01-30T05:11:49;16.60;;;9.18;;
77864;SDS011;67061;48.524;9.040;2024-01-30T05:14:18;17.17;;;9.35;;
77864;SDS011;67061;48.524;9.040;2024-01-30T05:16:45;15.77;;;8.85;;
77864;SDS011;67061;48.524;9.040;2024-01-30T05:19:13;16.13;;;9.35;;
77864;SDS011;67061;48.524;9.040;2024-01-30T05:21:40;17.88;;;9.23;;
77864;SDS011;67061;48.524;9.040;2024-01-30T05:24:07;17.13;;;10.43;;
77864;SDS011;67061;48.524;9.040;2024-01-30T05:26:35;16.80;;;8.85;;
77864;SDS011;67061;48.524;9.040;2024-01-30T05:29:02;18.02;;;8.93;;
77864;SDS011;67061;48.524;9.040;2024-01-30T05:31:31;17.08;;;9.05;;
77864;SDS011;67061;48.524;9.040;2024-01-30T05:33:57;15.73;;;8.48;;
77864;SDS011;67061;48.524;9.040;2024-01-30T05:36:25;15.77;;;9.25;;
77864;SDS011;67061;48.524;9.040;2024-01-30T05:38:52;16.85;;;8.95;;
77864;SDS011;67061;48.524;9.040;2024-01-30T05:41:19;14.23;;;8.60;;
77864;SDS011;67061;48.524;9.040;2024-01-30T05:43:46;16.50;;;9.60;;
77864;SDS011;67061;48.524;9.040;2024-01-30T05:46:13;17.33;;;9.68;;
77864;SDS011;67061;48.524;9.040;2024-01-30T05:48:41;17.85;;;11.20;;
77864;SDS011;67061;48.524;9.040;2024-01-30T05:51:08;17.88;;;10.38;;
77864;SDS011;67061;48.524;9.040;2024-01-30T05:53:35;18.35;;;11.75;;
77864;SDS011;67061;48.524;9.040;2024-01-30T05:56:02;19.88;;;9.90;;
77864;SDS011;67061;48.524;9.040;2024-01-30T05:58:29;17.92;;;8.60;;
77864;SDS011;67061;48.524;9.040;2024-01-30T06:00:57;16.02;;;8.75;;
77864;SDS011;67061;48.524;9.040;2024-01-30T06:03:24;15.88;;;9.50;;
77864;SDS011;67061;48.524;9.040;2024-01-30T06:05:52;14.93;;;8.50;;
77864;SDS011;67061;48.524;9.040;2024-01-30T06:08:19;17.67;;;11.13;;
77864;SDS011;67061;48.524;9.040;2024-01-30T06:10:45;14.63;;;8.35;;
77864;SDS011;67061;48.524;9.040;2024-01-30T06:13:13;15.85;;;9.27;;
77864;SDS011;67061;48.524;9.040;2024-01-30T06:15:40;15.85;;;10.07;;
77864;SDS011;67061;48.524;9.040;2024-01-30T06:18:07;17.45;;;9.25;;
77864;SDS011;67061;48.524;9.040;2024-01-30T06:20:34;15.38;;;8.73;;
77864;SDS011;67061;48.524;9.040;2024-01-30T06:23:02;15.70;;;8.55;;
77864;SDS011;67061;48.524;9.040;2024-01-30T06:25:29;17.13;;;8.63;;
77864;SDS011;67061;48.524;9.040;2024-01-30T06:27:56;15.80;;;8.40;;
77864;SDS011;67061;48.524;9.040;2024-01-30T06:30:23;16.80;;;8.63;;
77864;SDS011;67061;48.524;9.040;2024-01-30T06:32:50;15.77;;;8.85;;
77864;SDS011;67061;48.524;9.040;2024-01-30T06:35:17;19.50;;;9.30;;
77864;SDS011;67061;48.524;9.040;2024-01-30T06:37:44;17.10;;;11.90;;
77864;SDS011;67061;48.524;9.040;2024-01-30T06:40:12;17.48;;;9.70;;
77864;SDS011;67061;48.524;9.040;2024-01-30T06:42:39;15.45;;;8.52;;
77864;SDS011;67061;48.524;9.040;2024-01-30T06:45:07;16.92;;;9.20;;
77864;SDS011;67061;48.524;9.040;2024-01-30T06:47:34;18.17;;;9.23;;
77864;SDS011;67061;48.524;9.040;2024-01-30T06:50:01;15.80;;;9.00;;
77864;SDS011;67061;48.524;9.040;2024-01-30T06:52:28;17.17;;;9.05;;
77864;SDS011;67061;48.524;9.040;2024-01-30T06:54:55;15.85;;;9.68;;
77864;SDS011;67061;48.524;9.040;2024-01-30T06:57:23;17.90;;;9.32;;
77864;SDS011;67061;48.524;9.040;2024-01-30T06:59:56;17.55;;;9.27;;
77864;SDS011;67061;48.524;9.040;2024-01-30T07:02:22;15.77;;;8.60;;
77864;SDS011;67061;48.524;9.040;2024-01-30T07:04:50;17.88;;;9.65;;
77864;SDS011;67061;48.524;9.040;2024-01-30T07:07:17;18.40;;;9.63;;
77864;SDS011;67061;48.524;9.040;2024-01-30T07:09:44;18.20;;;9.40;;
77864;SDS011;67061;48.524;9.040;2024-01-30T07:12:12;17.58;;;9.77;;
77864;SDS011;67061;48.524;9.040;2024-01-30T07:14:40;18.58;;;9.50;;
77864;SDS011;67061;48.524;9.040;2024-01-30T07:17:07;16.45;;;9.25;;
77864;SDS011;67061;48.524;9.040;2024-01-30T07:19:34;19.08;;;10.85;;
77864;SDS011;67061;48.524;9.040;2024-01-30T07:22:01;17.63;;;9.82;;
77864;SDS011;67061;48.524;9.040;2024-01-30T07:24:28;18.83;;;9.88;;
77864;SDS011;67061;48.524;9.040;2024-01-30T07:26:55;18.90;;;9.55;;
77864;SDS011;67061;48.524;9.040;2024-01-30T07:29:22;19.98;;;10.55;;
77864;SDS011;67061;48.524;9.040;2024-01-30T07:31:50;16.58;;;9.48;;
77864;SDS011;67061;48.524;9.040;2024-01-30T07:34:17;18.02;;;10.20;;
77864;SDS011;67061;48.524;9.040;2024-01-30T07:36:44;15.60;;;9.18;;
77864;SDS011;67061;48.524;9.040;2024-01-30T07:39:12;15.73;;;9.65;;
77864;SDS011;67061;48.524;9.040;2024-01-30T07:41:39;18.83;;;10.98;;
77864;SDS011;67061;48.524;9.040;2024-01-30T07:44:06;18.30;;;11.15;;
77864;SDS011;67061;48.524;9.040;2024-01-30T07:46:33;17.50;;;10.23;;
77864;SDS011;67061;48.524;9.040;2024-01-30T07:49:01;17.38;;;10.25;;
77864;SDS011;67061;48.524;9.040;2024-01-30T07:51:28;18.42;;;11.18;;
77864;SDS011;67061;48.524;9.040;2024-01-30T07:53:57;18.02;;;10.85;;
77864;SDS011;67061;48.524;9.040;2024-01-30T07:56:23;25.02;;;11.68;;
77864;SDS011;67061;48.524;9.040;2024-01-30T07:58:50;21.70;;;11.80;;
77864;SDS011;67061;48.524;9.040;2024-01-30T08:01:18;19.67;;;10.93;;
77864;SDS011;67061;48.524;9.040;2024-01-30T08:03:45;18.13;;;10.27;;
77864;SDS011;67061;48.524;9.040;2024-01-30T08:06:13;18.92;;;12.10;;
77864;SDS011;67061;48.524;9.040;2024-01-30T08:08:40;19.08;;;12.05;;
77864;SDS011;67061;48.524;9.040;2024-01-30T08:11:07;21.10;;;11.57;;
77864;SDS011;67061;48.524;9.040;2024-01-30T08:13:34;18.65;;;11.20;;
77864;SDS011;67061;48.524;9.040;2024-01-30T08:16:01;18.88;;;12.02;;
77864;SDS011;67061;48.524;9.040;2024-01-30T08:18:28;18.65;;;10.75;;
77864;SDS011;67061;48.524;9.040;2024-01-30T08:20:54;18.25;;;10.38;;
77864;SDS011;67061;48.524;9.040;2024-01-30T08:23:23;21.23;;;12.55;;
77864;SDS011;67061;48.524;9.040;2024-01-30T08:25:49;17.30;;;10.98;;
77864;SDS011;67061;48.524;9.040;2024-01-30T08:28:16;17.38;;;10.45;;
77864;SDS011;67061;48.524;9.040;2024-01-30T08:30:43;16.90;;;10.35;;
77864;SDS011;67061;48.524;9.040;2024-01-30T08:33:10;18.35;;;11.07;;
77864;SDS011;67061;48.524;9.040;2024-01-30T08:35:37;16.65;;;10.23;;
77864;SDS011;67061;48.524;9.040;2024-01-30T08:38:04;17.70;;;11.43;;
77864;SDS011;67061;48.524;9.040;2024-01-30T08:40:32;18.40;;;10.95;;
77864;SDS011;67061;48.524;9.040;2024-01-30T08:43:00;15.82;;;10.02;;
77864;SDS011;67061;48.524;9.040;2024-01-30T08:45:27;17.70;;;10.15;;
77864;SDS011;67061;48.524;9.040;2024-01-30T08:47:54;17.05;;;9.45;;
77864;SDS011;67061;48.524;9.040;2024-01-30T08:50:21;17.88;;;10.23;;
77864;SDS011;67061;48.524;9.040;2024-01-30T08:52:48;16.75;;;10.15;;
77864;SDS011;67061;48.524;9.040;2024-01-30T08:55:15;18.33;;;10.68;;
77864;SDS011;67061;48.524;9.040;2024-01-30T08:57:43;18.60;;;11.98;;
77864;SDS011;67061;48.524;9.040;2024-01-30T09:00:11;17.45;;;10.68;;
77864;SDS011;67061;48.524;9.040;2024-01-30T09:02:38;17.55;;;10.70;;
77864;SDS011;67061;48.524;9.040;2024-01-30T09:05:05;15.88;;;10.10;;
77864;SDS011;67061;48.524;9.040;2024-01-30T09:07:32;16.63;;;9.75;;
77864;SDS011;67061;48.524;9.040;2024-01-30T09:09:59;17.90;;;10.82;;
77864;SDS011;67061;48.524;9.040;2024-01-30T09:12:26;19.00;;;10.55;;
77864;SDS011;67061;48.524;9.040;2024-01-30T09:14:54;16.73;;;11.65;;
77864;SDS011;67061;48.524;9.040;2024-01-30T09:17:21;19.42;;;12.15;;
77864;SDS011;67061;48.524;9.040;2024-01-30T09:19:48;18.35;;;10.60;;
77864;SDS011;67061;48.524;9.040;2024-01-30T09:22:15;17.00;;;10.18;;
77864;SDS011;67061;48.524;9.040;2024-01-30T09:24:42;20.33;;;10.93;;
77864;SDS011;67061;48.524;9.040;2024-01-30T09:27:09;18.98;;;11.80;;
77864;SDS011;67061;48.524;9.040;2024-01-30T09:29:36;15.15;;;10.10;;
77864;SDS011;67061;48.524;9.040;2024-01-30T09:32:06;16.13;;;10.35;;
77864;SDS011;67061;48.524;9.040;2024-01-30T09:34:34;15.48;;;10.00;;
77864;SDS011;67061;48.524;9.040;2024-01-30T09:37:01;18.45;;;11.27;;
77864;SDS011;67061;48.524;9.040;2024-01-30T09:39:27;18.55;;;10.68;;
77864;SDS011;67061;48.524;9.040;2024-01-30T09:41:55;17.33;;;11.88;;
77864;SDS011;67061;48.524;9.040;2024-01-30T09:44:28;19.13;;;11.20;;
77864;SDS011;67061;48.524;9.040;2024-01-30T09:46:56;17.50;;;10.38;;
77864;SDS011;67061;48.524;9.040;2024-01-30T09:49:30;18.42;;;11.32;;
77864;SDS011;67061;48.524;9.040;2024-01-30T09:51:59;19.42;;;10.70;;
77864;SDS011;67061;48.524;9.040;2024-01-30T09:54:26;17.42;;;10.82;;
77864;SDS011;67061;48.524;9.040;2024-01-30T09:56:56;18.42;;;11.50;;
77864;SDS011;67061;48.524;9.040;2024-01-30T09:59:23;19.65;;;13.07;;
77864;SDS011;67061;48.524;9.040;2024-01-30T10:01:50;18.95;;;12.15;;
77864;SDS011;67061;48.524;9.040;2024-01-30T10:04:17;20.25;;;12.30;;
77864;SDS011;67061;48.524;9.040;2024-01-30T10:06:45;20.45;;;11.93;;
77864;SDS011;67061;48.524;9.040;2024-01-30T10:09:13;23.75;;;15.13;;
77864;SDS011;67061;48.524;9.040;2024-01-30T10:11:40;19.88;;;12.25;;
77864;SDS011;67061;48.524;9.040;2024-01-30T10:14:07;18.77;;;12.05;;
77864;SDS011;67061;48.524;9.040;2024-01-30T10:16:34;19.13;;;11.13;;
77864;SDS011;67061;48.524;9.040;2024-01-30T10:19:01;16.05;;;10.30;;
77864;SDS011;67061;48.524;9.040;2024-01-30T10:21:29;16.48;;;10.43;;
77864;SDS011;67061;48.524;9.040;2024-01-30T10:23:58;20.55;;;12.30;;
77864;SDS011;67061;48.524;9.040;2024-01-30T10:26:25;18.05;;;11.35;;
77864;SDS011;67061;48.524;9.040;2024-01-30T10:28:52;17.08;;;11.70;;
77864;SDS011;67061;48.524;9.040;2024-01-30T10:31:19;19.90;;;12.85;;
77864;SDS011;67061;48.524;9.040;2024-01-30T10:33:46;16.35;;;10.30;;
77864;SDS011;67061;48.524;9.040;2024-01-30T10:36:14;18.20;;;11.02;;
77864;SDS011;67061;48.524;9.040;2024-01-30T10:38:42;16.58;;;10.63;;
77864;SDS011;67061;48.524;9.040;2024-01-30T10:41:13;19.98;;;10.68;;
77864;SDS011;67061;48.524;9.040;2024-01-30T10:43:46;16.85;;;10.02;;
77864;SDS011;67061;48.524;9.040;2024-01-30T10:46:20;17.70;;;10.93;;
77864;SDS011;67061;48.524;9.040;2024-01-30T10:48:50;17.70;;;11.65;;
77864;SDS011;67061;48.524;9.040;2024-01-30T10:51:24;14.10;;;10.15;;
77864;SDS011;67061;48.524;9.040;2024-01-30T10:53:52;17.08;;;11.75;;
77864;SDS011;67061;48.524;9.040;2024-01-30T10:56:21;14.63;;;10.35;;
77864;SDS011;67061;48.524;9.040;2024-01-30T10:58:49;20.40;;;11.45;;
77864;SDS011;67061;48.524;9.040;2024-01-30T11:01:17;17.27;;;10.80;;
77864;SDS011;67061;48.524;9.040;2024-01-30T11:03:45;18.60;;;11.45;;
77864;SDS011;67061;48.524;9.040;2024-01-30T11:06:12;17.95;;;11.20;;
77864;SDS011;67061;48.524;9.040;2024-01-30T11:08:43;19.13;;;11.60;;
77864;SDS011;67061;48.524;9.040;2024-01-30T11:11:11;17.65;;;11.23;;
77864;SDS011;67061;48.524;9.040;2024-01-30T11:13:39;19.23;;;11.95;;
77864;SDS011;67061;48.524;9.040;2024-01-30T11:16:07;15.95;;;9.40;;
77864;SDS011;67061;48.524;9.040;2024-01-30T11:18:38;14.38;;;9.43;;
77864;SDS011;67061;48.524;9.040;2024-01-30T11:21:05;18.77;;;10.05;;
77864;SDS011;67061;48.524;9.040;2024-01-30T11:23:33;15.50;;;11.27;;
77864;SDS011;67061;48.524;9.040;2024-01-30T11:26:01;15.80;;;10.27;;
77864;SDS011;67061;48.524;9.040;2024-01-30T11:28:31;17.38;;;10.07;;
77864;SDS011;67061;48.524;9.040;2024-01-30T11:31:04;16.15;;;12.27;;
77864;SDS011;67061;48.524;9.040;2024-01-30T11:33:32;18.20;;;10.98;;
77864;SDS011;67061;48.524;9.040;2024-01-30T11:35:59;17.63;;;9.80;;
77864;SDS011;67061;48.524;9.040;2024-01-30T11:38:27;15.10;;;10.20;;
77864;SDS011;67061;48.524;9.040;2024-01-30T11:40:55;15.80;;;10.63;;
77864;SDS011;67061;48.524;9.040;2024-01-30T11:43:22;16.02;;;10.88;;
77864;SDS011;67061;48.524;9.040;2024-01-30T11:45:49;16.40;;;10.82;;
77864;SDS011;67061;48.524;9.040;2024-01-30T11:48:18;17.50;;;10.73;;
77864;SDS011;67061;48.524;9.040;2024-01-30T11:50:45;18.23;;;10.48;;
77864;SDS011;67061;48.524;9.040;2024-01-30T11:53:13;16.85;;;10.65;;
77864;SDS011;67061;48.524;9.040;2024-01-30T11:55:40;17.08;;;10.40;;
77864;SDS011;67061;48.524;9.040;2024-01-30T11:58:06;12.85;;;9.63;;
77864;SDS011;67061;48.524;9.040;2024-01-30T12:00:33;14.50;;;10.07;;
77864;SDS011;67061;48.524;9.040;2024-01-30T12:03:00;16.25;;;11.48;;
77864;SDS011;67061;48.524;9.040;2024-01-30T12:05:29;17.42;;;11.45;;
77864;SDS011;67061;48.524;9.040;2024-01-30T12:07:56;16.00;;;10.90;;
77864;SDS011;67061;48.524;9.040;2024-01-30T12:10:24;18.27;;;10.75;;
77864;SDS011;67061;48.524;9.040;2024-01-30T12:12:52;18.05;;;10.73;;
77864;SDS011;67061;48.524;9.040;2024-01-30T12:15:21;20.45;;;11.20;;
77864;SDS011;67061;48.524;9.040;2024-01-30T12:17:48;17.33;;;10.75;;
77864;SDS011;67061;48.524;9.040;2024-01-30T12:20:17;16.95;;;10.45;;
77864;SDS011;67061;48.524;9.040;2024-01-30T12:22:48;18.63;;;12.07;;
77864;SDS011;67061;48.524;9.040;2024-01-30T12:25:16;17.67;;;11.70;;
77864;SDS011;67061;48.524;9.040;2024-01-30T12:27:44;17.08;;;10.70;;
77864;SDS011;67061;48.524;9.040;2024-01-30T12:30:15;19.45;;;10.93;;
77864;SDS011;67061;48.524;9.040;2024-01-30T12:32:43;15.95;;;9.88;;
77864;SDS011;67061;48.524;9.040;2024-01-30T12:35:10;15.23;;;9.65;;
77864;SDS011;67061;48.524;9.040;2024-01-30T12:37:38;14.93;;;9.90;;
77864;SDS011;67061;48.524;9.040;2024-01-30T12:40:07;15.88;;;9.68;;
77864;SDS011;67061;48.524;9.040;2024-01-30T12:45:01;18.92;;;9.50;;
77864;SDS011;67061;48.524;9.040;2024-01-30T12:47:29;15.95;;;10.35;;
77864;SDS011;67061;48.524;9.040;2024-01-30T12:49:56;17.08;;;11.45;;
77864;SDS011;67061;48.524;9.040;2024-01-30T12:52:23;22.02;;;13.15;;
77864;SDS011;67061;48.524;9.040;2024-01-30T12:54:50;18.83;;;12.60;;
77864;SDS011;67061;48.524;9.040;2024-01-30T12:57:19;16.40;;;11.65;;
77864;SDS011;67061;48.524;9.040;2024-01-30T12:59:46;16.10;;;10.98;;
77864;SDS011;67061;48.524;9.040;2024-01-30T13:02:13;18.55;;;11.25;;
77864;SDS011;67061;48.524;9.040;2024-01-30T13:04:41;16.33;;;10.63;;
77864;SDS011;67061;48.524;9.040;2024-01-30T13:07:08;15.10;;;10.30;;
77864;SDS011;67061;48.524;9.040;2024-01-30T13:09:35;19.70;;;11.15;;
77864;SDS011;67061;48.524;9.040;2024-01-30T13:12:03;12.23;;;8.88;;
77864;SDS011;67061;48.524;9.040;2024-01-30T13:14:31;13.35;;;8.88;;
77864;SDS011;67061;48.524;9.040;2024-01-30T13:16:58;15.25;;;9.38;;
77864;SDS011;67061;48.524;9.040;2024-01-30T13:19:25;16.25;;;9.80;;
77864;SDS011;67061;48.524;9.040;2024-01-30T13:21:52;14.90;;;8.40;;
77864;SDS011;67061;48.524;9.040;2024-01-30T13:24:19;20.23;;;9.02;;
77864;SDS011;67061;48.524;9.040;2024-01-30T13:26:46;15.35;;;8.32;;
77864;SDS011;67061;48.524;9.040;2024-01-30T13:29:14;16.15;;;9.20;;
77864;SDS011;67061;48.524;9.040;2024-01-30T13:31:42;15.30;;;8.80;;
77864;SDS011;67061;48.524;9.040;2024-01-30T13:34:11;17.13;;;8.95;;
77864;SDS011;67061;48.524;9.040;2024-01-30T13:36:38;16.85;;;8.25;;
77864;SDS011;67061;48.524;9.040;2024-01-30T13:39:06;21.38;;;9.23;;
77864;SDS011;67061;48.524;9.040;2024-01-30T13:41:36;16.38;;;8.13;;
77864;SDS011;67061;48.524;9.040;2024-01-30T13:44:03;13.43;;;8.60;;
77864;SDS011;67061;48.524;9.040;2024-01-30T13:46:30;10.85;;;7.75;;
77864;SDS011;67061;48.524;9.040;2024-01-30T13:48:58;11.70;;;7.97;;
77864;SDS011;67061;48.524;9.040;2024-01-30T13:51:25;11.70;;;8.30;;
77864;SDS011;67061;48.524;9.040;2024-01-30T13:53:52;11.05;;;7.60;;
77864;SDS011;67061;48.524;9.040;2024-01-30T13:56:19;13.02;;;10.35;;
77864;SDS011;67061;48.524;9.040;2024-01-30T13:58:47;12.77;;;8.75;;
77864;SDS011;67061;48.524;9.040;2024-01-30T14:01:15;12.35;;;9.45;;
77864;SDS011;67061;48.524;9.040;2024-01-30T14:03:42;11.38;;;8.68;;
77864;SDS011;67061;48.524;9.040;2024-01-30T14:06:10;14.15;;;9.43;;
77864;SDS011;67061;48.524;9.040;2024-01-30T14:08:37;15.32;;;10.55;;
77864;SDS011;67061;48.524;9.040;2024-01-30T14:11:04;25.58;;;17.60;;
77864;SDS011;67061;48.524;9.040;2024-01-30T14:13:31;23.98;;;15.75;;
77864;SDS011;67061;48.524;9.040;2024-01-30T14:15:58;22.10;;;13.30;;
77864;SDS011;67061;48.524;9.040;2024-01-30T14:18:25;19.05;;;12.40;;
77864;SDS011;67061;48.524;9.040;2024-01-30T14:20:52;18.35;;;12.27;;
77864;SDS011;67061;48.524;9.040;2024-01-30T14:23:21;20.10;;;11.57;;
77864;SDS011;67061;48.524;9.040;2024-01-30T14:25:48;16.63;;;11.25;;
77864;SDS011;67061;48.524;9.040;2024-01-30T14:28:16;20.45;;;11.20;;
77864;SDS011;67061;48.524;9.040;2024-01-30T14:30:43;18.67;;;11.00;;